Time;durP1;ratioP1;P1;durP2;ratioP2;P2;SDS_P1;SDS_P2;PMS_P1;PMS_P2;Temp;Humidity;BMP_temperature;BMP_pressure;BME280_temperature;BME280_humidity;BME280_pressure;Samples;Min_cycle;Max_cycle;Signal;HPM_P1;HPM_P2
2021/10/21 00:00:37;;;;;;;12.20;10.13;;;14.90;99.90;;;;;;5049344;28;20458;-83
2021/10/21 00:03:04;;;;;;;12.90;11.23;;;14.80;99.90;;;;;;5055476;28;20468;-83
2021/10/21 00:05:32;;;;;;;11.90;10.73;;;14.70;99.90;;;;;;5043239;28;20802;-82
2021/10/21 00:07:59;;;;;;;13.77;12.37;;;14.80;99.90;;;;;;5033893;28;20541;-82
2021/10/21 00:10:26;;;;;;;11.80;10.70;;;14.90;99.90;;;;;;5034248;28;20449;-82
2021/10/21 00:12:53;;;;;;;14.80;12.50;;;15.00;99.90;;;;;;5033797;28;20480;-83
2021/10/21 00:15:19;;;;;;;13.57;11.03;;;15.00;99.90;;;;;;5034139;28;20507;-83
2021/10/21 00:17:46;;;;;;;12.60;11.40;;;15.00;99.90;;;;;;5033634;28;20451;-83
2021/10/21 00:20:13;;;;;;;12.10;10.90;;;15.00;99.90;;;;;;5046798;28;20449;-83
2021/10/21 00:22:41;;;;;;;14.63;12.10;;;14.90;99.90;;;;;;5053628;28;20451;-83
2021/10/21 00:25:08;;;;;;;12.63;11.40;;;14.90;99.90;;;;;;5040480;28;20447;-83
2021/10/21 00:27:35;;;;;;;15.20;13.40;;;14.90;99.90;;;;;;5033866;28;20454;-83
2021/10/21 00:30:03;;;;;;;12.77;11.47;;;14.80;99.90;;;;;;5033477;28;20451;-83
2021/10/21 00:32:30;;;;;;;14.00;12.30;;;14.80;99.90;;;;;;5037042;28;20457;-83
2021/10/21 00:34:57;;;;;;;12.17;11.10;;;14.70;99.90;;;;;;5041225;28;20509;-82
2021/10/21 00:37:23;;;;;;;12.67;11.17;;;14.70;99.90;;;;;;5039772;28;20877;-83
2021/10/21 00:39:51;;;;;;;15.80;12.60;;;14.60;99.90;;;;;;5053221;28;20453;-82
2021/10/21 00:42:18;;;;;;;13.00;10.40;;;14.60;99.90;;;;;;5059949;28;20449;-82
2021/10/21 00:44:45;;;;;;;12.33;11.27;;;14.60;99.90;;;;;;5060376;28;20465;-83
2021/10/21 00:47:12;;;;;;;10.87;8.20;;;14.50;99.90;;;;;;5061381;28;20979;-83
2021/10/21 00:49:39;;;;;;;11.27;10.27;;;14.50;99.90;;;;;;5058625;28;20500;-84
2021/10/21 00:52:07;;;;;;;8.93;8.00;;;14.40;99.90;;;;;;5053599;28;20460;-83
2021/10/21 00:54:35;;;;;;;11.67;10.20;;;14.30;99.90;;;;;;5053676;28;20485;-83
2021/10/21 00:57:05;;;;;;;11.47;10.37;;;14.30;99.90;;;;;;5053655;28;20455;-83
2021/10/21 00:59:33;;;;;;;11.53;9.10;;;14.30;99.90;;;;;;5044393;28;20445;-83
2021/10/21 01:02:01;;;;;;;11.07;9.30;;;14.30;99.90;;;;;;5033306;28;20453;-83
2021/10/21 01:04:28;;;;;;;11.20;9.83;;;14.30;99.90;;;;;;5035855;28;20557;-83
2021/10/21 01:06:55;;;;;;;10.70;9.60;;;14.40;99.90;;;;;;5053439;28;20452;-84
2021/10/21 01:09:23;;;;;;;9.97;8.50;;;14.40;99.90;;;;;;5053525;28;20448;-83
2021/10/21 01:11:52;;;;;;;9.77;8.50;;;14.40;99.90;;;;;;5053441;28;20457;-84
2021/10/21 01:14:21;;;;;;;12.63;9.60;;;14.40;99.90;;;;;;5059878;28;20504;-82
2021/10/21 01:16:48;;;;;;;9.60;8.70;;;14.30;99.90;;;;;;5065634;28;20464;-80
2021/10/21 01:19:17;;;;;;;10.03;9.03;;;14.30;99.90;;;;;;5050103;28;20453;-83
2021/10/21 01:21:47;;;;;;;10.40;9.40;;;14.30;99.90;;;;;;5033554;28;20967;-83
2021/10/21 01:24:13;;;;;;;12.27;10.50;;;14.30;99.90;;;;;;5042542;28;20479;-83
2021/10/21 01:26:43;;;;;;;11.23;10.07;;;14.30;99.90;;;;;;5053458;28;20815;-84
2021/10/21 01:29:10;;;;;;;10.63;9.60;;;14.30;99.90;;;;;;5044943;28;20962;-84
2021/10/21 01:31:38;;;;;;;11.47;10.43;;;14.30;99.90;;;;;;5033992;28;20461;-84
2021/10/21 01:34:07;;;;;;;12.83;11.70;;;14.30;99.90;;;;;;5036461;28;20555;-84
2021/10/21 01:36:34;;;;;;;10.70;9.60;;;14.30;99.90;;;;;;5036706;28;20515;-84
2021/10/21 01:39:03;;;;;;;10.43;9.43;;;14.30;99.90;;;;;;5042917;28;20452;-84
2021/10/21 01:41:30;;;;;;;10.83;9.77;;;14.20;99.90;;;;;;5056636;28;20448;-84
2021/10/21 01:43:57;;;;;;;10.00;9.00;;;14.20;99.90;;;;;;5047741;28;20473;-84
2021/10/21 01:46:24;;;;;;;9.60;8.50;;;14.20;99.90;;;;;;5036358;28;20469;-84
2021/10/21 01:48:50;;;;;;;10.83;9.27;;;14.20;99.90;;;;;;5036789;28;20450;-84
2021/10/21 01:51:17;;;;;;;10.73;9.73;;;14.10;99.90;;;;;;5037238;28;20457;-84
2021/10/21 01:53:44;;;;;;;8.60;7.73;;;14.10;99.90;;;;;;5036588;28;20497;-84
2021/10/21 01:56:12;;;;;;;8.30;7.30;;;14.10;99.90;;;;;;5036252;28;20445;-84
2021/10/21 01:58:39;;;;;;;8.67;7.87;;;14.10;99.90;;;;;;5036951;28;20457;-83
2021/10/21 02:01:06;;;;;;;9.10;7.83;;;14.10;99.90;;;;;;5036276;28;20465;-84
2021/10/21 02:03:33;;;;;;;7.87;7.03;;;14.10;99.90;;;;;;5036822;28;20897;-83
2021/10/21 02:06:00;;;;;;;7.63;6.90;;;14.20;99.90;;;;;;5036043;28;20451;-83
2021/10/21 02:08:27;;;;;;;11.07;8.60;;;14.10;99.90;;;;;;5037896;28;20460;-83
2021/10/21 02:10:54;;;;;;;8.60;7.80;;;14.10;99.90;;;;;;5055882;28;20949;-84
2021/10/21 02:13:22;;;;;;;8.23;7.53;;;14.20;99.90;;;;;;5051336;28;21009;-83
2021/10/21 02:15:49;;;;;;;8.10;7.30;;;14.10;99.90;;;;;;5035446;28;20539;-84
2021/10/21 02:18:16;;;;;;;8.10;6.10;;;14.10;99.90;;;;;;5038350;28;20816;-84
2021/10/21 02:20:43;;;;;;;7.00;6.30;;;14.10;99.90;;;;;;5035823;28;20521;-83
2021/10/21 02:23:09;;;;;;;8.80;7.97;;;14.10;99.90;;;;;;5036522;28;20469;-83
2021/10/21 02:25:36;;;;;;;8.00;6.30;;;14.10;99.90;;;;;;5055681;28;20467;-83
2021/10/21 02:28:03;;;;;;;6.33;5.73;;;14.20;99.90;;;;;;5055561;28;20478;-83
2021/10/21 02:30:34;;;;;;;7.50;6.37;;;14.10;99.90;;;;;;5055630;28;20828;-83
2021/10/21 02:33:01;;;;;;;8.00;6.87;;;14.10;99.90;;;;;;5056329;28;20477;-83
2021/10/21 02:35:28;;;;;;;7.33;6.63;;;14.10;99.90;;;;;;5037423;28;20489;-84
2021/10/21 02:37:55;;;;;;;8.47;7.10;;;14.00;99.90;;;;;;5035508;28;20454;-83
2021/10/21 02:40:21;;;;;;;7.30;6.60;;;14.10;99.90;;;;;;5035435;28;20455;-84
2021/10/21 02:42:48;;;;;;;8.97;7.83;;;14.10;99.90;;;;;;5035119;28;20458;-84
2021/10/21 02:45:15;;;;;;;8.40;6.30;;;14.10;99.90;;;;;;5035059;28;20453;-84
2021/10/21 02:47:44;;;;;;;5.70;5.20;;;14.10;99.90;;;;;;5035486;28;20491;-85
2021/10/21 02:50:11;;;;;;;7.07;6.43;;;14.20;99.90;;;;;;5035536;28;20461;-83
2021/10/21 02:52:41;;;;;;;8.30;6.50;;;14.20;99.90;;;;;;5035148;28;20461;-84
2021/10/21 02:55:09;;;;;;;7.17;6.17;;;14.30;99.90;;;;;;5045963;28;20482;-84
2021/10/21 02:57:36;;;;;;;6.20;5.60;;;14.30;99.90;;;;;;5047019;28;20458;-85
2021/10/21 03:00:05;;;;;;;6.37;5.77;;;14.30;99.90;;;;;;5065649;28;20544;-85
2021/10/21 03:02:31;;;;;;;5.10;4.63;;;14.30;99.90;;;;;;5064814;28;20458;-85
2021/10/21 03:05:00;;;;;;;5.93;5.43;;;14.30;99.90;;;;;;5066177;28;20806;-84
2021/10/21 03:07:26;;;;;;;9.50;5.10;;;14.30;99.90;;;;;;5065865;28;20460;-85
2021/10/21 03:09:53;;;;;;;6.37;5.63;;;14.30;99.90;;;;;;5049096;28;20982;-85
2021/10/21 03:12:20;;;;;;;6.37;5.60;;;14.40;99.90;;;;;;5065345;28;20449;-85
2021/10/21 03:14:47;;;;;;;5.57;5.07;;;14.40;99.90;;;;;;5049458;28;20485;-85
2021/10/21 03:17:14;;;;;;;4.90;4.50;;;14.40;99.90;;;;;;5047020;28;20445;-85
2021/10/21 03:19:40;;;;;;;5.60;5.07;;;14.40;99.90;;;;;;5046141;28;20480;-84
2021/10/21 03:22:09;;;;;;;5.07;4.67;;;14.40;99.90;;;;;;5045600;28;20963;-85
2021/10/21 03:24:36;;;;;;;5.07;4.13;;;14.50;99.90;;;;;;5044933;28;20542;-85
2021/10/21 03:27:03;;;;;;;6.30;5.60;;;14.50;99.90;;;;;;5051222;28;20452;-84
2021/10/21 03:29:30;;;;;;;3.97;3.57;;;14.50;99.90;;;;;;5065562;28;20450;-85
2021/10/21 03:31:56;;;;;;;3.97;3.67;;;14.50;99.90;;;;;;5058983;28;20454;-85
2021/10/21 03:34:23;;;;;;;3.97;3.60;;;14.50;99.90;;;;;;5043759;28;20493;-85
2021/10/21 03:36:50;;;;;;;3.13;2.50;;;14.40;99.90;;;;;;5048309;28;20450;-86
2021/10/21 03:39:18;;;;;;;1.33;1.23;;;14.30;99.90;;;;;;5066520;28;20447;-84
2021/10/21 03:41:45;;;;;;;1.77;1.33;;;14.30;99.90;;;;;;5063521;28;20455;-84
2021/10/21 03:44:12;;;;;;;3.73;2.07;;;14.20;99.90;;;;;;5045605;28;20962;-84
2021/10/21 03:46:39;;;;;;;2.20;2.00;;;14.30;99.90;;;;;;5046843;28;20455;-84
2021/10/21 03:49:06;;;;;;;2.37;2.17;;;14.20;99.90;;;;;;5066521;28;20865;-84
2021/10/21 03:51:33;;;;;;;2.07;1.93;;;14.20;99.90;;;;;;5066482;28;21262;-83
2021/10/21 03:54:00;;;;;;;3.60;3.40;;;14.20;99.90;;;;;;5045757;28;20472;-85
2021/10/21 03:56:28;;;;;;;4.60;1.83;;;14.20;99.90;;;;;;5048900;28;20477;-84
2021/10/21 03:58:55;;;;;;;6.10;1.80;;;14.20;99.90;;;;;;5066312;28;20452;-85
2021/10/21 04:01:22;;;;;;;1.97;1.53;;;14.20;99.90;;;;;;5065264;28;20445;-84
2021/10/21 04:03:48;;;;;;;2.10;1.90;;;14.20;99.90;;;;;;5065705;28;20469;-85
2021/10/21 04:06:15;;;;;;;1.17;1.10;;;14.10;99.90;;;;;;5064898;28;20912;-85
2021/10/21 04:08:42;;;;;;;1.60;1.50;;;14.10;99.90;;;;;;5025479;28;20521;-84
2021/10/21 04:11:09;;;;;;;2.30;1.10;;;14.10;99.90;;;;;;5025462;28;20820;-85
2021/10/21 04:13:37;;;;;;;1.23;1.20;;;14.00;99.90;;;;;;5062551;28;20472;-85
2021/10/21 04:16:04;;;;;;;3.03;1.07;;;14.00;99.90;;;;;;5064640;28;20517;-85
2021/10/21 04:18:31;;;;;;;0.87;0.87;;;13.90;99.90;;;;;;5047295;28;20460;-85
2021/10/21 04:20:57;;;;;;;0.97;0.90;;;13.90;99.90;;;;;;5044953;28;20455;-85
2021/10/21 04:23:24;;;;;;;2.20;1.20;;;13.90;99.90;;;;;;5060534;28;20468;-84
2021/10/21 04:25:51;;;;;;;1.00;1.00;;;13.90;99.90;;;;;;5063417;28;20460;-85
2021/10/21 04:28:18;;;;;;;0.93;0.83;;;13.90;99.90;;;;;;5061383;28;20448;-86
2021/10/21 04:30:46;;;;;;;1.50;1.40;;;13.90;99.90;;;;;;5063212;28;20448;-85
2021/10/21 04:33:13;;;;;;;2.20;1.10;;;13.90;99.90;;;;;;5061411;28;20472;-84
2021/10/21 04:35:39;;;;;;;0.97;0.83;;;13.80;99.90;;;;;;5063155;28;20488;-85
2021/10/21 04:38:06;;;;;;;0.80;0.67;;;13.70;99.90;;;;;;5046753;28;20454;-85
2021/10/21 04:40:33;;;;;;;2.80;0.90;;;13.60;99.90;;;;;;5044761;28;20521;-84
2021/10/21 04:43:00;;;;;;;0.60;0.60;;;13.60;99.90;;;;;;5045690;28;20469;-84
2021/10/21 04:45:27;;;;;;;0.97;0.83;;;13.60;99.90;;;;;;5044156;28;20741;-84
2021/10/21 04:47:56;;;;;;;4.33;1.07;;;13.50;99.90;;;;;;5055879;28;20459;-85
2021/10/21 04:50:24;;;;;;;1.03;0.93;;;13.40;99.90;;;;;;5063853;28;20548;-85
2021/10/21 04:52:52;;;;;;;1.63;0.83;;;13.40;99.90;;;;;;5049689;28;20476;-83
2021/10/21 04:55:20;;;;;;;1.27;0.97;;;13.20;99.90;;;;;;5042998;28;20518;-85
2021/10/21 04:57:46;;;;;;;0.70;0.67;;;13.20;99.90;;;;;;5058326;28;20447;-85
2021/10/21 05:00:14;;;;;;;0.50;0.43;;;13.20;99.90;;;;;;5070962;28;20459;-85
2021/10/21 05:02:41;;;;;;;2.40;0.63;;;13.20;99.90;;;;;;5070946;28;20487;-84
2021/10/21 05:05:10;;;;;;;0.87;0.77;;;13.10;99.90;;;;;;5070513;28;20460;-85
2021/10/21 05:07:37;;;;;;;3.60;0.97;;;13.10;99.90;;;;;;5049889;28;20448;-85
2021/10/21 05:10:05;;;;;;;0.80;0.80;;;12.90;99.90;;;;;;5047603;28;20464;-84
2021/10/21 05:12:32;;;;;;;2.20;0.57;;;12.80;99.90;;;;;;5066982;28;20464;-84
2021/10/21 05:14:59;;;;;;;1.57;0.70;;;12.80;99.90;;;;;;5047720;28;20477;-84
2021/10/21 05:17:26;;;;;;;2.73;0.60;;;12.80;99.90;;;;;;5046401;28;20445;-83
2021/10/21 05:19:53;;;;;;;1.00;1.00;;;12.70;99.90;;;;;;5046133;28;20453;-84
2021/10/21 05:22:21;;;;;;;1.70;0.80;;;12.70;99.90;;;;;;5045827;28;20453;-84
2021/10/21 05:24:48;;;;;;;4.07;0.90;;;12.60;99.90;;;;;;5063134;28;20475;-84
2021/10/21 05:27:15;;;;;;;4.03;1.40;;;12.70;99.90;;;;;;5056578;28;20459;-84
2021/10/21 05:29:42;;;;;;;1.40;1.10;;;12.60;99.90;;;;;;5046673;28;20453;-83
2021/10/21 05:32:08;;;;;;;2.00;1.43;;;12.60;99.90;;;;;;5055154;28;20866;-84
2021/10/21 05:34:35;;;;;;;1.53;1.30;;;12.60;99.90;;;;;;5065317;28;20573;-84
2021/10/21 05:37:04;;;;;;;4.00;1.53;;;12.70;99.90;;;;;;5057579;28;20452;-83
2021/10/21 05:39:32;;;;;;;1.57;0.63;;;12.60;99.90;;;;;;5045387;28;20479;-83
2021/10/21 05:41:59;;;;;;;1.43;0.70;;;12.60;99.90;;;;;;5049376;28;20910;-84
2021/10/21 05:44:26;;;;;;;1.50;1.40;;;12.60;99.90;;;;;;5045334;28;20465;-83
2021/10/21 05:46:54;;;;;;;4.00;0.90;;;12.50;99.90;;;;;;5045138;28;20452;-84
2021/10/21 05:49:21;;;;;;;1.27;0.67;;;12.50;99.90;;;;;;5045274;28;20492;-83
2021/10/21 05:51:48;;;;;;;2.20;0.90;;;12.50;99.90;;;;;;5050176;28;20439;-83
2021/10/21 05:54:15;;;;;;;1.80;1.10;;;12.50;99.90;;;;;;5061827;28;20492;-82
2021/10/21 05:56:43;;;;;;;1.73;1.20;;;12.50;99.90;;;;;;5078236;28;20506;-83
2021/10/21 05:59:10;;;;;;;2.20;1.10;;;12.60;99.90;;;;;;5060448;28;20461;-84
2021/10/21 06:01:37;;;;;;;5.40;1.20;;;12.50;99.90;;;;;;5046427;28;20466;-84
2021/10/21 06:04:04;;;;;;;2.13;1.40;;;12.50;99.90;;;;;;5058638;28;20571;-84
2021/10/21 06:06:32;;;;;;;2.70;1.17;;;12.60;99.90;;;;;;5065530;28;20451;-83
2021/10/21 06:08:59;;;;;;;1.80;1.67;;;12.50;99.90;;;;;;5053004;28;20989;-84
2021/10/21 06:11:26;;;;;;;4.80;1.13;;;12.50;99.90;;;;;;5046433;28;20463;-84
2021/10/21 06:13:55;;;;;;;4.20;1.33;;;12.50;99.90;;;;;;5057379;28;20471;-83
2021/10/21 06:16:22;;;;;;;2.20;1.17;;;12.40;99.90;;;;;;5048518;28;20510;-83
2021/10/21 06:18:48;;;;;;;3.63;1.03;;;12.40;99.90;;;;;;5045510;28;20464;-83
2021/10/21 06:21:21;;;;;;;1.40;0.80;;;12.30;99.90;;;;;;5055951;28;20452;-83
2021/10/21 06:23:48;;;;;;;1.13;0.90;;;12.40;99.90;;;;;;5066727;28;20476;-83
2021/10/21 06:26:17;;;;;;;2.30;1.10;;;12.30;99.90;;;;;;5069553;28;20463;-83
2021/10/21 06:28:43;;;;;;;2.30;1.07;;;12.40;99.90;;;;;;5055925;28;20464;-83
2021/10/21 06:31:12;;;;;;;2.40;1.60;;;12.40;99.90;;;;;;5047508;28;20452;-83
2021/10/21 06:33:40;;;;;;;1.43;0.87;;;12.40;99.90;;;;;;5059632;28;20475;-84
2021/10/21 06:36:07;;;;;;;4.77;2.97;;;12.40;99.90;;;;;;5067183;28;20499;-83
2021/10/21 06:38:34;;;;;;;1.90;1.17;;;12.40;99.90;;;;;;5067066;28;20448;-83
2021/10/21 06:41:02;;;;;;;1.90;0.60;;;12.50;99.90;;;;;;5067294;28;20451;-84
2021/10/21 06:43:28;;;;;;;4.60;1.50;;;12.50;99.90;;;;;;5063323;28;20479;-84
2021/10/21 06:45:55;;;;;;;2.90;1.50;;;12.50;99.90;;;;;;5053509;28;20449;-84
2021/10/21 06:48:23;;;;;;;2.87;1.07;;;12.50;99.90;;;;;;5047485;28;20449;-84
2021/10/21 06:50:50;;;;;;;3.07;2.03;;;12.50;99.90;;;;;;5048972;28;20458;-84
2021/10/21 06:53:18;;;;;;;2.23;0.87;;;12.50;99.90;;;;;;5058839;28;20469;-84
2021/10/21 06:55:45;;;;;;;2.77;1.10;;;12.50;99.90;;;;;;5059519;28;20491;-84
2021/10/21 06:58:12;;;;;;;3.97;0.90;;;12.50;99.90;;;;;;5046168;28;20479;-83
2021/10/21 07:00:40;;;;;;;4.03;1.37;;;12.60;99.90;;;;;;5048403;28;20455;-83
2021/10/21 07:03:07;;;;;;;4.93;1.73;;;12.60;99.90;;;;;;5062127;28;20478;-85
2021/10/21 07:05:39;;;;;;;2.63;1.37;;;12.60;99.90;;;;;;5050377;28;20456;-82
2021/10/21 07:08:06;;;;;;;5.40;1.63;;;12.60;99.90;;;;;;5042452;28;20433;-80
2021/10/21 07:10:33;;;;;;;2.00;1.47;;;12.70;99.60;;;;;;5045549;28;20452;-80
2021/10/21 07:13:03;;;;;;;1.87;0.80;;;12.80;99.30;;;;;;5039715;28;20477;-81
2021/10/21 07:15:29;;;;;;;4.40;1.23;;;12.90;99.20;;;;;;5052049;28;20513;-82
2021/10/21 07:17:56;;;;;;;1.30;0.90;;;12.90;99.00;;;;;;5066616;28;20466;-82
2021/10/21 07:20:23;;;;;;;2.90;1.50;;;12.90;99.20;;;;;;5050874;28;20540;-82
2021/10/21 07:22:51;;;;;;;1.53;1.00;;;12.90;99.30;;;;;;5046932;28;20492;-82
2021/10/21 07:25:18;;;;;;;4.67;1.10;;;12.90;99.10;;;;;;5043282;28;20536;-82
2021/10/21 07:27:45;;;;;;;2.63;1.00;;;12.90;99.00;;;;;;5042754;28;20456;-81
2021/10/21 07:30:13;;;;;;;1.20;0.73;;;12.90;98.50;;;;;;5044243;28;20456;-81
2021/10/21 07:32:40;;;;;;;3.77;0.90;;;12.90;98.90;;;;;;5042507;28;20452;-82
2021/10/21 07:35:08;;;;;;;1.90;0.93;;;13.00;98.90;;;;;;5042031;28;20458;-81
2021/10/21 07:37:35;;;;;;;1.70;0.60;;;13.00;98.10;;;;;;5043480;28;20488;-82
2021/10/21 07:40:04;;;;;;;3.33;0.80;;;13.10;98.30;;;;;;5046111;28;20456;-82
2021/10/21 07:48:18;;;;;;;2.50;0.73;;;13.20;98.40;;;;;;3981395;22;20532;-82
2021/10/21 07:51:41;;;;;;;1.20;0.77;;;13.10;98.10;;;;;;5040695;28;20508;-82
2021/10/21 07:54:07;;;;;;;5.17;0.90;;;13.10;97.70;;;;;;5047411;28;20476;-81
2021/10/21 07:56:36;;;;;;;4.87;1.00;;;13.10;97.80;;;;;;5051935;28;21077;-82
2021/10/21 07:59:03;;;;;;;1.13;0.50;;;13.00;97.60;;;;;;5059778;28;20830;-82
2021/10/21 08:01:31;;;;;;;1.47;0.80;;;13.00;98.10;;;;;;5052399;28;20473;-82
2021/10/21 08:03:59;;;;;;;3.23;0.57;;;13.00;97.50;;;;;;5060488;28;20470;-82
2021/10/21 08:06:26;;;;;;;3.03;0.80;;;13.10;97.10;;;;;;5068493;28;20501;-82
2021/10/21 08:08:53;;;;;;;0.47;0.30;;;13.20;97.70;;;;;;5054509;28;20513;-84
2021/10/21 08:11:19;;;;;;;2.00;0.97;;;13.30;97.00;;;;;;5049251;28;20449;-84
2021/10/21 08:13:47;;;;;;;0.80;0.63;;;13.40;96.90;;;;;;5050474;28;20469;-84
2021/10/21 08:16:14;;;;;;;2.20;0.80;;;13.40;96.70;;;;;;5048154;28;20481;-83
2021/10/21 08:18:41;;;;;;;2.10;0.53;;;13.50;97.10;;;;;;5065123;28;20454;-85
2021/10/21 08:21:07;;;;;;;1.50;0.90;;;13.50;96.70;;;;;;5061247;28;20506;-85
2021/10/21 08:23:34;;;;;;;10.00;0.93;;;13.60;96.40;;;;;;5044226;28;20478;-84
2021/10/21 08:26:01;;;;;;;1.60;0.50;;;13.50;96.30;;;;;;5042649;28;20518;-84
2021/10/21 08:28:28;;;;;;;0.87;0.60;;;13.50;96.60;;;;;;5049022;28;20456;-84
2021/10/21 08:30:56;;;;;;;0.73;0.40;;;13.60;96.70;;;;;;5046765;28;20459;-83
2021/10/21 08:33:23;;;;;;;1.57;0.60;;;13.60;96.10;;;;;;5047019;28;20469;-83
2021/10/21 08:35:49;;;;;;;1.93;0.60;;;13.60;96.40;;;;;;5047301;28;20472;-84
2021/10/21 08:38:16;;;;;;;3.77;0.50;;;13.60;96.40;;;;;;5046969;28;20460;-84
2021/10/21 08:40:43;;;;;;;0.90;0.73;;;13.50;95.90;;;;;;5048371;28;20473;-82
2021/10/21 08:43:10;;;;;;;0.60;0.60;;;13.50;95.80;;;;;;5054759;28;20472;-82
2021/10/21 08:45:37;;;;;;;1.80;0.93;;;13.40;96.00;;;;;;5060612;28;20447;-82
2021/10/21 08:48:07;;;;;;;1.90;0.70;;;13.40;96.40;;;;;;5057840;28;20441;-84
2021/10/21 08:50:35;;;;;;;1.47;0.67;;;13.50;96.30;;;;;;5053139;28;20588;-84
2021/10/21 08:53:03;;;;;;;3.03;0.90;;;13.60;96.40;;;;;;5068337;22;20507;-81
2021/10/21 08:55:30;;;;;;;0.80;0.70;;;13.60;97.20;;;;;;5061166;28;20463;-82
2021/10/21 08:57:59;;;;;;;0.50;0.30;;;13.40;96.60;;;;;;5060786;28;20498;-81
2021/10/21 09:00:26;;;;;;;1.20;1.10;;;12.90;97.80;;;;;;5062119;28;20502;-82
2021/10/21 09:02:56;;;;;;;0.60;0.60;;;12.60;98.30;;;;;;5061537;28;20455;-82
2021/10/21 09:05:31;;;;;;;2.70;0.93;;;12.60;98.90;;;;;;5061427;28;20459;-81
2021/10/21 09:08:09;;;;;;;1.23;0.60;;;12.40;99.70;;;;;;5060393;28;20513;-82
2021/10/21 09:10:44;;;;;;;1.00;0.70;;;12.50;99.90;;;;;;5062544;28;20451;-81
2021/10/21 09:13:20;;;;;;;0.87;0.40;;;12.70;99.90;;;;;;5068267;28;20475;-82
2021/10/21 09:15:49;;;;;;;0.80;0.77;;;12.80;99.90;;;;;;5065674;28;20459;-82
2021/10/21 09:18:17;;;;;;;0.40;0.40;;;12.70;99.90;;;;;;5060683;28;20452;-81
2021/10/21 09:20:47;;;;;;;0.57;0.40;;;12.80;99.90;;;;;;5061568;28;20452;-82
2021/10/21 09:23:16;;;;;;;0.93;0.70;;;12.70;99.90;;;;;;5060926;28;20468;-81
2021/10/21 09:25:44;;;;;;;0.40;0.40;;;12.50;99.90;;;;;;5060410;28;20455;-82
2021/10/21 09:28:24;;;;;;;0.50;0.30;;;12.50;99.90;;;;;;5061184;28;20460;-82
2021/10/21 09:30:52;;;;;;;0.70;0.40;;;12.50;99.90;;;;;;5060549;28;20448;-82
2021/10/21 09:33:19;;;;;;;1.67;0.50;;;12.60;99.90;;;;;;5060583;28;20476;-82
2021/10/21 09:35:55;;;;;;;1.10;0.67;;;12.60;99.90;;;;;;5060314;28;20458;-81
2021/10/21 09:38:28;;;;;;;0.40;0.40;;;12.50;99.90;;;;;;5060884;28;20474;-82
2021/10/21 09:40:55;;;;;;;0.90;0.40;;;12.40;99.90;;;;;;5061162;28;20929;-82
2021/10/21 09:43:30;;;;;;;0.97;0.30;;;12.50;99.90;;;;;;5061403;28;20476;-81
2021/10/21 09:45:58;;;;;;;0.30;0.30;;;12.60;99.90;;;;;;5060070;28;20807;-82
2021/10/21 09:48:25;;;;;;;0.60;0.50;;;12.60;99.90;;;;;;5060648;28;20460;-82
2021/10/21 09:50:51;;;;;;;1.90;1.00;;;12.50;99.90;;;;;;5060927;28;20448;-82
2021/10/21 09:53:22;;;;;;;1.07;0.80;;;12.60;99.90;;;;;;5059635;28;20479;-81
2021/10/21 09:55:50;;;;;;;0.40;0.40;;;12.10;99.70;;;;;;5060586;28;20527;-82
2021/10/21 09:58:21;;;;;;;1.63;0.40;;;11.80;99.90;;;;;;5061466;28;20509;-82
2021/10/21 10:00:49;;;;;;;0.37;0.37;;;11.70;99.90;;;;;;5060716;28;20455;-82
2021/10/21 10:03:17;;;;;;;0.30;0.30;;;11.50;99.70;;;;;;5059880;28;20476;-81
2021/10/21 10:05:48;;;;;;;0.37;0.33;;;11.40;99.60;;;;;;5063972;28;20451;-82
2021/10/21 10:08:16;;;;;;;2.50;0.60;;;11.40;98.90;;;;;;5073005;28;20442;-82
2021/10/21 10:10:45;;;;;;;0.50;0.40;;;11.30;98.40;;;;;;5065871;28;20451;-82
2021/10/21 10:13:13;;;;;;;0.40;0.40;;;11.40;99.00;;;;;;5060104;28;20485;-82
2021/10/21 10:15:44;;;;;;;0.80;0.40;;;11.50;99.00;;;;;;5059840;28;20867;-82
2021/10/21 10:18:16;;;;;;;0.30;0.30;;;11.60;99.30;;;;;;5060634;28;20538;-82
2021/10/21 10:20:47;;;;;;;1.27;0.60;;;11.80;99.70;;;;;;5056067;28;20452;-82
2021/10/21 10:23:15;;;;;;;0.53;0.47;;;11.90;99.40;;;;;;5060429;28;20525;-82
2021/10/21 10:25:48;;;;;;;0.80;0.40;;;12.10;99.70;;;;;;5060035;28;20459;-82
2021/10/21 10:28:15;;;;;;;0.30;0.30;;;12.20;99.10;;;;;;5059123;28;20437;-82
2021/10/21 10:30:52;;;;;;;0.40;0.40;;;12.30;98.70;;;;;;5060351;28;20463;-82
2021/10/21 10:33:41;;;;;;;0.80;0.23;;;12.30;98.60;;;;;;5059389;28;20499;-81
2021/10/21 10:36:24;;;;;;;1.13;0.40;;;12.40;98.60;;;;;;5060654;28;20889;-82
2021/10/21 10:38:51;;;;;;;0.50;0.50;;;12.70;98.60;;;;;;5056590;28;20452;-78
2021/10/21 10:41:54;;;;;;;0.30;0.30;;;13.10;97.60;;;;;;5052318;28;20464;-80
2021/10/21 10:44:58;;;;;;;0.40;0.40;;;13.60;96.70;;;;;;5050447;28;20495;-83
2021/10/21 10:47:48;;;;;;;0.67;0.50;;;14.20;96.20;;;;;;5055876;28;20447;-84
2021/10/21 10:50:17;;;;;;;0.93;0.67;;;14.40;94.00;;;;;;5049372;28;20461;-83
2021/10/21 10:52:51;;;;;;;1.20;0.60;;;14.30;93.70;;;;;;5055373;28;20459;-82
2021/10/21 10:55:19;;;;;;;0.80;0.53;;;14.30;93.20;;;;;;5048850;28;20821;-82
2021/10/21 10:57:54;;;;;;;1.90;0.63;;;14.50;93.00;;;;;;5055256;28;20488;-83
2021/10/21 11:00:39;;;;;;;3.40;0.57;;;14.70;92.60;;;;;;5055338;28;20459;-82
2021/10/21 11:03:10;;;;;;;2.27;0.70;;;14.90;92.60;;;;;;5054480;28;20557;-80
2021/10/21 11:05:56;;;;;;;1.43;0.60;;;15.00;92.10;;;;;;5055408;28;20965;-80
2021/10/21 11:08:51;;;;;;;1.17;0.77;;;15.30;92.20;;;;;;5054086;28;20455;-81
2021/10/21 11:11:51;;;;;;;1.47;0.70;;;15.50;91.60;;;;;;5054306;28;20459;-83
2021/10/21 11:14:20;;;;;;;0.40;0.30;;;16.00;90.60;;;;;;4991662;28;20520;-82
2021/10/21 11:16:53;;;;;;;0.67;0.67;;;16.10;90.40;;;;;;5051293;28;20502;-82
2021/10/21 11:19:49;;;;;;;4.40;0.67;;;16.50;90.30;;;;;;5054572;28;20477;-83
2021/10/21 11:22:41;;;;;;;1.80;0.63;;;16.40;86.20;;;;;;5002688;28;20460;-82
2021/10/21 11:25:11;;;;;;;0.63;0.60;;;15.80;86.20;;;;;;5044024;28;21046;-83
2021/10/21 11:27:39;;;;;;;2.40;1.67;;;15.60;86.90;;;;;;5053701;28;20459;-84
2021/10/21 11:30:10;;;;;;;0.60;0.43;;;15.80;88.00;;;;;;5053297;28;20786;-82
2021/10/21 11:32:39;;;;;;;1.70;1.00;;;16.00;86.90;;;;;;5051881;28;20449;-80
2021/10/21 11:35:08;;;;;;;1.50;0.80;;;16.10;85.10;;;;;;5036249;28;20484;-81
2021/10/21 11:37:37;;;;;;;0.83;0.70;;;15.90;83.60;;;;;;5051795;28;20986;-83
2021/10/21 11:40:06;;;;;;;3.10;0.90;;;16.00;84.40;;;;;;5053665;28;20452;-84
2021/10/21 11:43:10;;;;;;;0.73;0.53;;;15.90;82.60;;;;;;5039765;28;20454;-82
2021/10/21 11:45:39;;;;;;;1.80;0.90;;;15.70;83.60;;;;;;5034836;28;20457;-83
2021/10/21 11:48:08;;;;;;;2.50;0.93;;;16.00;85.00;;;;;;5053570;28;20475;-83
2021/10/21 11:50:38;;;;;;;0.70;0.60;;;16.30;85.20;;;;;;5053036;28;20442;-83
2021/10/21 11:53:06;;;;;;;0.83;0.60;;;16.50;84.20;;;;;;5052758;28;20471;-83
2021/10/21 11:55:33;;;;;;;1.17;0.47;;;16.60;84.00;;;;;;5054048;28;20458;-83
2021/10/21 11:58:10;;;;;;;1.27;0.60;;;16.80;83.40;;;;;;5052926;28;20489;-83
2021/10/21 12:00:38;;;;;;;2.77;0.97;;;16.80;83.50;;;;;;5052349;28;20459;-82
2021/10/21 12:03:05;;;;;;;0.73;0.70;;;17.10;82.80;;;;;;5053371;28;20494;-83
2021/10/21 12:05:33;;;;;;;0.80;0.67;;;17.50;81.70;;;;;;5051966;28;20455;-80
2021/10/21 12:08:01;;;;;;;0.90;0.70;;;17.90;81.80;;;;;;5051687;28;20538;-83
2021/10/21 12:10:30;;;;;;;0.93;0.63;;;18.10;80.40;;;;;;5053389;28;20815;-81
2021/10/21 12:12:57;;;;;;;2.57;0.60;;;18.50;79.90;;;;;;5051015;28;20459;-82
2021/10/21 12:15:25;;;;;;;1.13;0.70;;;18.60;79.40;;;;;;5050267;28;20463;-82
2021/10/21 12:17:54;;;;;;;0.63;0.63;;;18.70;76.50;;;;;;5056571;28;20487;-81
2021/10/21 12:20:37;;;;;;;1.50;0.87;;;18.60;75.70;;;;;;5053248;28;20843;-80
2021/10/21 12:23:25;;;;;;;1.70;0.80;;;18.70;76.40;;;;;;5053128;28;20482;-78
2021/10/21 12:25:53;;;;;;;4.20;0.80;;;18.10;75.00;;;;;;5052159;28;20460;-79
2021/10/21 12:28:21;;;;;;;1.03;0.70;;;18.30;76.60;;;;;;5054073;28;20455;-80
2021/10/21 12:30:49;;;;;;;0.93;0.60;;;18.30;75.00;;;;;;5051812;28;20459;-82
2021/10/21 12:33:19;;;;;;;0.67;0.60;;;18.10;76.80;;;;;;5051966;28;20479;-82
2021/10/21 12:36:02;;;;;;;2.33;0.60;;;18.10;75.20;;;;;;5050835;28;20465;-80
2021/10/21 12:38:29;;;;;;;1.30;0.80;;;18.10;75.30;;;;;;5037350;28;20497;-82
2021/10/21 12:41:05;;;;;;;0.57;0.47;;;18.20;76.10;;;;;;5052457;28;20459;-83
2021/10/21 12:43:33;;;;;;;0.80;0.70;;;18.30;75.70;;;;;;5054293;28;20474;-81
2021/10/21 12:46:03;;;;;;;0.97;0.40;;;18.60;76.10;;;;;;5053449;28;20823;-82
2021/10/21 12:48:32;;;;;;;0.40;0.40;;;18.80;74.80;;;;;;5052129;28;20505;-81
2021/10/21 12:51:12;;;;;;;1.07;0.70;;;18.80;73.10;;;;;;5051142;28;20532;-82
2021/10/21 12:53:39;;;;;;;1.73;0.83;;;18.90;72.70;;;;;;5052829;28;20529;-82
2021/10/21 12:56:20;;;;;;;1.53;1.20;;;18.70;72.40;;;;;;5053478;28;20459;-82
2021/10/21 12:58:47;;;;;;;1.70;0.70;;;18.70;72.40;;;;;;5052845;28;20494;-83
2021/10/21 13:01:14;;;;;;;0.80;0.60;;;18.20;72.50;;;;;;5051627;28;20460;-83